This is the latest recevied weather packets stored in our database for station/object KG7QQL. If no packets are shown the sender has not sent any weather packets the latest 10 day(s).
| Time | Temp. | Humidity | Pressure | Rain* | Wind** | Luminosity | Snow |
|---|---|---|---|---|---|---|---|
| 1777229488 | 15.56° C | 44% | - | 0 mm | - | - | - |
| 1777229185 | 15.56° C | 44% | - | 0 mm | - | - | - |
| 1777228882 | 15° C | 45% | - | 0 mm | - | - | - |
| 1777228579 | 14.44° C | 47% | - | 0 mm | - | - | - |
| 1777228275 | 14.44° C | 49% | - | 0 mm | - | - | - |
| 1777227975 | 15° C | 49% | - | 0 mm | - | - | - |
| 1777227669 | 15° C | 48% | - | 0 mm | - | - | - |
| 1777227366 | 15° C | 48% | - | 0 mm | - | - | - |
| 1777227062 | 14.44° C | 50% | - | 0 mm | - | - | - |
| 1777226757 | 14.44° C | 50% | - | 0 mm | - | - | - |
| 1777226452 | 14.44° C | 49% | - | 0 mm | - | - | - |
| 1777226148 | 15° C | 47% | - | 0 mm | - | - | - |
| 1777225844 | 15° C | 49% | - | 0 mm | - | - | - |
| 1777225540 | 15° C | 48% | - | 0 mm | - | - | - |
| 1777225238 | 14.44° C | 48% | - | 0 mm | - | - | - |
| 1777224934 | 14.44° C | 48% | - | 0 mm | - | - | - |
| 1777224631 | 15.56° C | 46% | - | 0 mm | - | - | - |
| 1777224325 | 15° C | 48% | - | 0 mm | - | - | - |
| 1777224021 | 15° C | 45% | - | 0 mm | - | - | - |
| 1777223720 | 15° C | 48% | - | 0 mm | - | - | - |
| 1777223415 | 16.11° C | 43% | - | 0 mm | - | - | - |
| 1777223113 | 14.44° C | 46% | - | 0 mm | - | - | - |
| 1777222809 | 13.89° C | 47% | - | 0 mm | - | - | - |
| 1777222508 | 13.33° C | 51% | - | 0 mm | - | - | - |
| 1777222204 | 14.44° C | 48% | - | 0 mm | - | - | - |
* Rain latest hour (hover to see other rain measurements)
** Current wind speed in m/s (hover to see current wind gust speed)